sensor_id;sensor_type;location;lat;lon;timestamp;P1;durP1;ratioP1;P2;durP2;ratioP2
56593;SDS011;42474;51.660;5.824;2023-05-29T00:02:15;8.86;;;2.8;;
56593;SDS011;42474;51.660;5.824;2023-05-29T00:06:15;7.19;;;2.69;;
56593;SDS011;42474;51.660;5.824;2023-05-29T00:10:15;8.8;;;2.87;;
56593;SDS011;42474;51.660;5.824;2023-05-29T00:14:15;8.96;;;2.42;;
56593;SDS011;42474;51.660;5.824;2023-05-29T00:18:15;5.9;;;2.3;;
56593;SDS011;42474;51.660;5.824;2023-05-29T00:22:15;11.38;;;2.58;;
56593;SDS011;42474;51.660;5.824;2023-05-29T00:26:15;9.12;;;2.47;;
56593;SDS011;42474;51.660;5.824;2023-05-29T00:30:15;6.9;;;2.3;;
56593;SDS011;42474;51.660;5.824;2023-05-29T00:34:15;7.47;;;2.04;;
56593;SDS011;42474;51.660;5.824;2023-05-29T00:38:15;6.92;;;2.47;;
56593;SDS011;42474;51.660;5.824;2023-05-29T00:42:15;7.44;;;2.38;;
56593;SDS011;42474;51.660;5.824;2023-05-29T00:46:16;6.7;;;2.11;;
56593;SDS011;42474;51.660;5.824;2023-05-29T00:50:15;9.23;;;2.3;;
56593;SDS011;42474;51.660;5.824;2023-05-29T00:54:21;7.51;;;2.19;;
56593;SDS011;42474;51.660;5.824;2023-05-29T00:58:15;7.71;;;1.99;;
56593;SDS011;42474;51.660;5.824;2023-05-29T01:02:16;7.38;;;2.03;;
56593;SDS011;42474;51.660;5.824;2023-05-29T01:06:16;7.46;;;2.1;;
56593;SDS011;42474;51.660;5.824;2023-05-29T01:10:16;7.93;;;2.33;;
56593;SDS011;42474;51.660;5.824;2023-05-29T01:14:20;8.93;;;2.52;;
56593;SDS011;42474;51.660;5.824;2023-05-29T01:18:23;13.71;;;2.47;;
56593;SDS011;42474;51.660;5.824;2023-05-29T01:22:28;12.32;;;2.53;;
56593;SDS011;42474;51.660;5.824;2023-05-29T01:26:23;9.65;;;2.08;;
56593;SDS011;42474;51.660;5.824;2023-05-29T01:30:15;9.31;;;2.18;;
56593;SDS011;42474;51.660;5.824;2023-05-29T01:34:15;5.79;;;1.88;;
56593;SDS011;42474;51.660;5.824;2023-05-29T01:38:15;11.23;;;2.38;;
56593;SDS011;42474;51.660;5.824;2023-05-29T01:42:15;5.11;;;2.11;;
56593;SDS011;42474;51.660;5.824;2023-05-29T01:46:16;7.08;;;2.33;;
56593;SDS011;42474;51.660;5.824;2023-05-29T01:50:17;7.64;;;1.97;;
56593;SDS011;42474;51.660;5.824;2023-05-29T01:54:15;10.15;;;3.1;;
56593;SDS011;42474;51.660;5.824;2023-05-29T01:58:16;7.54;;;2.47;;
56593;SDS011;42474;51.660;5.824;2023-05-29T02:02:15;6.44;;;2.1;;
56593;SDS011;42474;51.660;5.824;2023-05-29T02:06:15;7.92;;;2.26;;
56593;SDS011;42474;51.660;5.824;2023-05-29T02:10:15;12.78;;;2.13;;
56593;SDS011;42474;51.660;5.824;2023-05-29T02:14:15;9.47;;;2;;
56593;SDS011;42474;51.660;5.824;2023-05-29T02:18:16;4.9;;;1.81;;
56593;SDS011;42474;51.660;5.824;2023-05-29T02:22:17;9.08;;;1.88;;
56593;SDS011;42474;51.660;5.824;2023-05-29T02:26:15;9.39;;;2.11;;
56593;SDS011;42474;51.660;5.824;2023-05-29T02:30:15;8.71;;;2.28;;
56593;SDS011;42474;51.660;5.824;2023-05-29T02:34:15;10.41;;;1.98;;
56593;SDS011;42474;51.660;5.824;2023-05-29T02:38:15;7.25;;;1.97;;
56593;SDS011;42474;51.660;5.824;2023-05-29T02:42:15;8.97;;;2;;
56593;SDS011;42474;51.660;5.824;2023-05-29T02:46:15;8.96;;;2.32;;
56593;SDS011;42474;51.660;5.824;2023-05-29T02:50:15;8.84;;;2.41;;
56593;SDS011;42474;51.660;5.824;2023-05-29T02:54:15;6.84;;;1.96;;
56593;SDS011;42474;51.660;5.824;2023-05-29T02:58:15;9.27;;;2.37;;
56593;SDS011;42474;51.660;5.824;2023-05-29T03:02:15;9.85;;;2.24;;
56593;SDS011;42474;51.660;5.824;2023-05-29T03:06:15;8.72;;;2.16;;
56593;SDS011;42474;51.660;5.824;2023-05-29T03:10:15;8.36;;;2.38;;
56593;SDS011;42474;51.660;5.824;2023-05-29T03:14:15;7.63;;;2.52;;
56593;SDS011;42474;51.660;5.824;2023-05-29T03:18:15;7.08;;;2.31;;
56593;SDS011;42474;51.660;5.824;2023-05-29T03:22:15;9.52;;;2.9;;
56593;SDS011;42474;51.660;5.824;2023-05-29T03:26:15;9.58;;;2.29;;
56593;SDS011;42474;51.660;5.824;2023-05-29T03:30:15;10.97;;;2.46;;
56593;SDS011;42474;51.660;5.824;2023-05-29T03:34:15;8.54;;;2.13;;
56593;SDS011;42474;51.660;5.824;2023-05-29T03:38:15;8.26;;;2.07;;
56593;SDS011;42474;51.660;5.824;2023-05-29T03:42:15;8.69;;;2.29;;
56593;SDS011;42474;51.660;5.824;2023-05-29T03:46:15;13.28;;;2.39;;
56593;SDS011;42474;51.660;5.824;2023-05-29T03:50:15;10.84;;;2.42;;
56593;SDS011;42474;51.660;5.824;2023-05-29T03:54:15;8.15;;;1.77;;
56593;SDS011;42474;51.660;5.824;2023-05-29T03:58:15;8.35;;;2.92;;
56593;SDS011;42474;51.660;5.824;2023-05-29T04:02:15;12.03;;;2.64;;
56593;SDS011;42474;51.660;5.824;2023-05-29T04:06:15;12.79;;;2.77;;
56593;SDS011;42474;51.660;5.824;2023-05-29T04:10:15;8.29;;;2.02;;
56593;SDS011;42474;51.660;5.824;2023-05-29T04:14:15;7.58;;;2.11;;
56593;SDS011;42474;51.660;5.824;2023-05-29T04:18:15;9.07;;;2.34;;
56593;SDS011;42474;51.660;5.824;2023-05-29T04:22:15;10.42;;;2.53;;
56593;SDS011;42474;51.660;5.824;2023-05-29T04:26:15;11.9;;;2.6;;
56593;SDS011;42474;51.660;5.824;2023-05-29T04:30:15;7.88;;;2.34;;
56593;SDS011;42474;51.660;5.824;2023-05-29T04:34:15;6.3;;;2.13;;
56593;SDS011;42474;51.660;5.824;2023-05-29T04:38:15;10.03;;;2.56;;
56593;SDS011;42474;51.660;5.824;2023-05-29T04:42:15;9.28;;;2.27;;
56593;SDS011;42474;51.660;5.824;2023-05-29T04:46:15;10.04;;;2.43;;
56593;SDS011;42474;51.660;5.824;2023-05-29T04:50:16;11.56;;;2.75;;
56593;SDS011;42474;51.660;5.824;2023-05-29T04:54:15;11.69;;;2.46;;
56593;SDS011;42474;51.660;5.824;2023-05-29T04:58:15;10.22;;;2.32;;
56593;SDS011;42474;51.660;5.824;2023-05-29T05:02:16;9.04;;;2.39;;
56593;SDS011;42474;51.660;5.824;2023-05-29T05:06:15;7.68;;;2.26;;
56593;SDS011;42474;51.660;5.824;2023-05-29T05:10:15;10.95;;;2.08;;
56593;SDS011;42474;51.660;5.824;2023-05-29T05:14:15;8.46;;;2.19;;
56593;SDS011;42474;51.660;5.824;2023-05-29T05:18:15;8.96;;;2.15;;
56593;SDS011;42474;51.660;5.824;2023-05-29T05:22:15;9.89;;;1.98;;
56593;SDS011;42474;51.660;5.824;2023-05-29T05:26:15;9.36;;;2.27;;
56593;SDS011;42474;51.660;5.824;2023-05-29T05:30:15;14.32;;;2.73;;
56593;SDS011;42474;51.660;5.824;2023-05-29T05:34:15;8.73;;;2.31;;
56593;SDS011;42474;51.660;5.824;2023-05-29T05:38:15;10.09;;;2.2;;
56593;SDS011;42474;51.660;5.824;2023-05-29T05:42:15;13.42;;;2.93;;
56593;SDS011;42474;51.660;5.824;2023-05-29T05:46:15;12.47;;;2.34;;
56593;SDS011;42474;51.660;5.824;2023-05-29T05:50:15;9.22;;;2.58;;
56593;SDS011;42474;51.660;5.824;2023-05-29T05:54:15;6.01;;;2.26;;
56593;SDS011;42474;51.660;5.824;2023-05-29T05:58:16;7.7;;;2.67;;
56593;SDS011;42474;51.660;5.824;2023-05-29T06:02:15;8.87;;;2.26;;
56593;SDS011;42474;51.660;5.824;2023-05-29T06:06:15;10.18;;;2.37;;
56593;SDS011;42474;51.660;5.824;2023-05-29T06:10:15;13.97;;;2.25;;
56593;SDS011;42474;51.660;5.824;2023-05-29T06:14:16;13.78;;;3.06;;
56593;SDS011;42474;51.660;5.824;2023-05-29T06:18:15;9.64;;;1.98;;
56593;SDS011;42474;51.660;5.824;2023-05-29T06:22:15;7.98;;;2.13;;
56593;SDS011;42474;51.660;5.824;2023-05-29T06:26:16;7.47;;;2.09;;
56593;SDS011;42474;51.660;5.824;2023-05-29T06:30:15;8.16;;;2.3;;
56593;SDS011;42474;51.660;5.824;2023-05-29T06:34:15;12.96;;;2.51;;
56593;SDS011;42474;51.660;5.824;2023-05-29T06:38:15;9.71;;;2.24;;
56593;SDS011;42474;51.660;5.824;2023-05-29T06:42:15;9.01;;;2.5;;
56593;SDS011;42474;51.660;5.824;2023-05-29T06:46:15;8.09;;;1.91;;
56593;SDS011;42474;51.660;5.824;2023-05-29T06:50:15;7.25;;;2.08;;
56593;SDS011;42474;51.660;5.824;2023-05-29T06:54:16;8.13;;;2.19;;
56593;SDS011;42474;51.660;5.824;2023-05-29T06:58:15;8.84;;;2.08;;
56593;SDS011;42474;51.660;5.824;2023-05-29T07:02:15;8.32;;;2.02;;
56593;SDS011;42474;51.660;5.824;2023-05-29T07:06:15;8.77;;;2.27;;
56593;SDS011;42474;51.660;5.824;2023-05-29T07:10:16;11.02;;;2.1;;
56593;SDS011;42474;51.660;5.824;2023-05-29T07:14:16;9.57;;;2.45;;
56593;SDS011;42474;51.660;5.824;2023-05-29T07:18:15;7.15;;;2.15;;
56593;SDS011;42474;51.660;5.824;2023-05-29T07:22:16;6.41;;;1.88;;
56593;SDS011;42474;51.660;5.824;2023-05-29T07:26:16;11.02;;;2.43;;
56593;SDS011;42474;51.660;5.824;2023-05-29T07:30:15;10.63;;;1.95;;
56593;SDS011;42474;51.660;5.824;2023-05-29T07:34:16;9.53;;;2.06;;
56593;SDS011;42474;51.660;5.824;2023-05-29T07:38:15;7.53;;;2.12;;
56593;SDS011;42474;51.660;5.824;2023-05-29T07:42:15;6.96;;;1.82;;
56593;SDS011;42474;51.660;5.824;2023-05-29T07:46:15;10.72;;;2.08;;
56593;SDS011;42474;51.660;5.824;2023-05-29T07:50:15;9.32;;;2.76;;
56593;SDS011;42474;51.660;5.824;2023-05-29T07:54:16;7.19;;;1.95;;
56593;SDS011;42474;51.660;5.824;2023-05-29T07:58:15;7.58;;;2.01;;
56593;SDS011;42474;51.660;5.824;2023-05-29T08:02:15;7.17;;;1.62;;
56593;SDS011;42474;51.660;5.824;2023-05-29T08:06:15;7.52;;;1.99;;
56593;SDS011;42474;51.660;5.824;2023-05-29T08:10:15;10.39;;;1.92;;
56593;SDS011;42474;51.660;5.824;2023-05-29T08:14:16;9.82;;;2.07;;
56593;SDS011;42474;51.660;5.824;2023-05-29T08:18:15;8.76;;;2;;
56593;SDS011;42474;51.660;5.824;2023-05-29T08:22:15;7.62;;;1.95;;
56593;SDS011;42474;51.660;5.824;2023-05-29T08:26:15;6.97;;;2.09;;
56593;SDS011;42474;51.660;5.824;2023-05-29T08:30:16;8.95;;;2.65;;
56593;SDS011;42474;51.660;5.824;2023-05-29T08:34:15;5.36;;;1.92;;
56593;SDS011;42474;51.660;5.824;2023-05-29T08:38:15;5.93;;;1.97;;
56593;SDS011;42474;51.660;5.824;2023-05-29T08:42:21;6.88;;;1.76;;
56593;SDS011;42474;51.660;5.824;2023-05-29T08:46:17;5.44;;;1.77;;
56593;SDS011;42474;51.660;5.824;2023-05-29T08:50:17;8.46;;;1.88;;
56593;SDS011;42474;51.660;5.824;2023-05-29T08:54:16;7.45;;;1.92;;
56593;SDS011;42474;51.660;5.824;2023-05-29T08:58:16;4.27;;;1.65;;
56593;SDS011;42474;51.660;5.824;2023-05-29T09:02:16;5.17;;;1.76;;
56593;SDS011;42474;51.660;5.824;2023-05-29T09:06:16;4.41;;;1.48;;
56593;SDS011;42474;51.660;5.824;2023-05-29T09:10:16;6.26;;;1.63;;
56593;SDS011;42474;51.660;5.824;2023-05-29T09:14:34;7.89;;;1.79;;
56593;SDS011;42474;51.660;5.824;2023-05-29T09:18:16;4.7;;;1.61;;
56593;SDS011;42474;51.660;5.824;2023-05-29T09:22:16;6.42;;;2.01;;
56593;SDS011;42474;51.660;5.824;2023-05-29T09:26:16;9.91;;;1.85;;
56593;SDS011;42474;51.660;5.824;2023-05-29T09:30:30;6.23;;;1.85;;
56593;SDS011;42474;51.660;5.824;2023-05-29T09:34:16;8.31;;;1.76;;
56593;SDS011;42474;51.660;5.824;2023-05-29T09:38:17;5.68;;;1.84;;
56593;SDS011;42474;51.660;5.824;2023-05-29T09:42:16;6.59;;;1.59;;
56593;SDS011;42474;51.660;5.824;2023-05-29T09:46:16;5.79;;;2.17;;
56593;SDS011;42474;51.660;5.824;2023-05-29T09:50:18;5.22;;;1.7;;
56593;SDS011;42474;51.660;5.824;2023-05-29T09:54:16;6.34;;;1.75;;
56593;SDS011;42474;51.660;5.824;2023-05-29T09:58:17;6.05;;;1.86;;
56593;SDS011;42474;51.660;5.824;2023-05-29T10:02:16;8.89;;;1.64;;
56593;SDS011;42474;51.660;5.824;2023-05-29T10:06:18;10.47;;;1.94;;
56593;SDS011;42474;51.660;5.824;2023-05-29T10:10:17;7.77;;;1.58;;
56593;SDS011;42474;51.660;5.824;2023-05-29T10:14:18;7.62;;;1.76;;
56593;SDS011;42474;51.660;5.824;2023-05-29T10:18:21;6.2;;;1.4;;
56593;SDS011;42474;51.660;5.824;2023-05-29T10:22:18;5.53;;;1.77;;
56593;SDS011;42474;51.660;5.824;2023-05-29T10:26:19;9.06;;;1.84;;
56593;SDS011;42474;51.660;5.824;2023-05-29T10:30:24;7.75;;;1.73;;
56593;SDS011;42474;51.660;5.824;2023-05-29T10:34:30;6.11;;;1.47;;
56593;SDS011;42474;51.660;5.824;2023-05-29T10:38:16;5.75;;;1.81;;
56593;SDS011;42474;51.660;5.824;2023-05-29T10:42:48;5.25;;;1.65;;
56593;SDS011;42474;51.660;5.824;2023-05-29T10:46:16;6;;;1.61;;
56593;SDS011;42474;51.660;5.824;2023-05-29T10:50:35;10.99;;;2.23;;
56593;SDS011;42474;51.660;5.824;2023-05-29T10:54:16;3.65;;;1.62;;
56593;SDS011;42474;51.660;5.824;2023-05-29T10:58:18;4.45;;;1.68;;
56593;SDS011;42474;51.660;5.824;2023-05-29T11:02:18;6.28;;;1.65;;
56593;SDS011;42474;51.660;5.824;2023-05-29T11:06:18;4.36;;;1.42;;
56593;SDS011;42474;51.660;5.824;2023-05-29T11:10:16;4.57;;;1.58;;
56593;SDS011;42474;51.660;5.824;2023-05-29T11:14:16;6.62;;;1.77;;
56593;SDS011;42474;51.660;5.824;2023-05-29T11:18:20;5.8;;;1.8;;
56593;SDS011;42474;51.660;5.824;2023-05-29T11:22:23;4.14;;;1.51;;
56593;SDS011;42474;51.660;5.824;2023-05-29T11:26:16;6.05;;;1.66;;
56593;SDS011;42474;51.660;5.824;2023-05-29T11:30:16;6.7;;;2.21;;
56593;SDS011;42474;51.660;5.824;2023-05-29T11:34:16;5.94;;;1.55;;
56593;SDS011;42474;51.660;5.824;2023-05-29T11:38:16;5.08;;;1.56;;
56593;SDS011;42474;51.660;5.824;2023-05-29T11:42:16;7.5;;;1.61;;
56593;SDS011;42474;51.660;5.824;2023-05-29T11:46:17;4.24;;;1.61;;
56593;SDS011;42474;51.660;5.824;2023-05-29T11:50:19;6.01;;;1.84;;
56593;SDS011;42474;51.660;5.824;2023-05-29T11:54:19;5.33;;;1.45;;
56593;SDS011;42474;51.660;5.824;2023-05-29T11:58:16;5.96;;;1.76;;
56593;SDS011;42474;51.660;5.824;2023-05-29T12:02:16;7.26;;;1.87;;
56593;SDS011;42474;51.660;5.824;2023-05-29T12:06:16;5.78;;;1.81;;
56593;SDS011;42474;51.660;5.824;2023-05-29T12:10:17;6.18;;;1.41;;
56593;SDS011;42474;51.660;5.824;2023-05-29T12:14:16;4.61;;;1.4;;
56593;SDS011;42474;51.660;5.824;2023-05-29T12:18:16;6.76;;;1.82;;
56593;SDS011;42474;51.660;5.824;2023-05-29T12:22:16;3.85;;;1.73;;
56593;SDS011;42474;51.660;5.824;2023-05-29T12:26:16;6.7;;;2.13;;
56593;SDS011;42474;51.660;5.824;2023-05-29T12:30:20;5.18;;;1.82;;
56593;SDS011;42474;51.660;5.824;2023-05-29T12:34:16;5.02;;;1.73;;
56593;SDS011;42474;51.660;5.824;2023-05-29T12:38:18;5.51;;;2.02;;
56593;SDS011;42474;51.660;5.824;2023-05-29T12:42:16;4.88;;;1.62;;
56593;SDS011;42474;51.660;5.824;2023-05-29T12:46:16;5.32;;;1.62;;
56593;SDS011;42474;51.660;5.824;2023-05-29T12:50:24;3.06;;;1.7;;
56593;SDS011;42474;51.660;5.824;2023-05-29T12:54:16;7.03;;;1.65;;
56593;SDS011;42474;51.660;5.824;2023-05-29T12:58:16;5.03;;;1.71;;
56593;SDS011;42474;51.660;5.824;2023-05-29T13:02:16;4.54;;;1.53;;
56593;SDS011;42474;51.660;5.824;2023-05-29T13:06:16;4.69;;;1.84;;
56593;SDS011;42474;51.660;5.824;2023-05-29T13:10:16;5.68;;;1.66;;
56593;SDS011;42474;51.660;5.824;2023-05-29T13:14:16;5.83;;;1.65;;
56593;SDS011;42474;51.660;5.824;2023-05-29T13:18:16;5.75;;;1.38;;
56593;SDS011;42474;51.660;5.824;2023-05-29T13:22:16;7.73;;;2.25;;
56593;SDS011;42474;51.660;5.824;2023-05-29T13:26:16;5.65;;;2.11;;
56593;SDS011;42474;51.660;5.824;2023-05-29T13:30:16;5.9;;;1.98;;
56593;SDS011;42474;51.660;5.824;2023-05-29T13:34:16;4.52;;;1.56;;
56593;SDS011;42474;51.660;5.824;2023-05-29T13:38:16;4.36;;;1.61;;
56593;SDS011;42474;51.660;5.824;2023-05-29T13:42:18;5.32;;;1.78;;
56593;SDS011;42474;51.660;5.824;2023-05-29T13:46:16;6.2;;;2.14;;
56593;SDS011;42474;51.660;5.824;2023-05-29T13:50:16;4.65;;;1.74;;
56593;SDS011;42474;51.660;5.824;2023-05-29T13:54:16;4.26;;;1.86;;
56593;SDS011;42474;51.660;5.824;2023-05-29T13:58:16;6.47;;;1.64;;
56593;SDS011;42474;51.660;5.824;2023-05-29T14:02:16;6.88;;;1.82;;
56593;SDS011;42474;51.660;5.824;2023-05-29T14:06:16;5.88;;;1.55;;
56593;SDS011;42474;51.660;5.824;2023-05-29T14:10:16;5.17;;;1.79;;
56593;SDS011;42474;51.660;5.824;2023-05-29T14:14:16;4.45;;;1.57;;
56593;SDS011;42474;51.660;5.824;2023-05-29T14:22:16;4.54;;;1.62;;
56593;SDS011;42474;51.660;5.824;2023-05-29T14:26:16;6.37;;;1.85;;
56593;SDS011;42474;51.660;5.824;2023-05-29T14:30:16;4.49;;;1.58;;
56593;SDS011;42474;51.660;5.824;2023-05-29T14:34:16;6.85;;;1.69;;
56593;SDS011;42474;51.660;5.824;2023-05-29T14:38:16;6.09;;;1.73;;
56593;SDS011;42474;51.660;5.824;2023-05-29T14:42:16;4.44;;;1.81;;
56593;SDS011;42474;51.660;5.824;2023-05-29T14:46:16;5.03;;;1.61;;
56593;SDS011;42474;51.660;5.824;2023-05-29T14:50:16;5.61;;;1.74;;
56593;SDS011;42474;51.660;5.824;2023-05-29T14:54:16;5.39;;;1.67;;
56593;SDS011;42474;51.660;5.824;2023-05-29T14:58:16;4.98;;;1.79;;
56593;SDS011;42474;51.660;5.824;2023-05-29T15:02:16;5.22;;;1.74;;
56593;SDS011;42474;51.660;5.824;2023-05-29T15:06:16;6.91;;;1.97;;
56593;SDS011;42474;51.660;5.824;2023-05-29T15:10:16;6.81;;;1.63;;
56593;SDS011;42474;51.660;5.824;2023-05-29T15:14:16;4.66;;;1.55;;
56593;SDS011;42474;51.660;5.824;2023-05-29T15:18:16;4.92;;;1.9;;
56593;SDS011;42474;51.660;5.824;2023-05-29T15:22:16;4.28;;;1.58;;
56593;SDS011;42474;51.660;5.824;2023-05-29T15:26:16;6.26;;;2.04;;
56593;SDS011;42474;51.660;5.824;2023-05-29T15:30:18;4.57;;;1.73;;
56593;SDS011;42474;51.660;5.824;2023-05-29T15:34:16;4.64;;;1.68;;
56593;SDS011;42474;51.660;5.824;2023-05-29T15:38:16;5.73;;;1.74;;
56593;SDS011;42474;51.660;5.824;2023-05-29T15:42:16;4.73;;;1.52;;
56593;SDS011;42474;51.660;5.824;2023-05-29T15:46:16;6.26;;;1.78;;
56593;SDS011;42474;51.660;5.824;2023-05-29T15:50:16;6.4;;;1.92;;
56593;SDS011;42474;51.660;5.824;2023-05-29T15:54:16;5.38;;;1.61;;
56593;SDS011;42474;51.660;5.824;2023-05-29T15:58:16;5.95;;;1.65;;
56593;SDS011;42474;51.660;5.824;2023-05-29T16:02:16;5.23;;;1.63;;
56593;SDS011;42474;51.660;5.824;2023-05-29T16:06:16;6.03;;;1.92;;
56593;SDS011;42474;51.660;5.824;2023-05-29T16:10:16;5.24;;;1.81;;
56593;SDS011;42474;51.660;5.824;2023-05-29T16:14:16;5.63;;;1.55;;
56593;SDS011;42474;51.660;5.824;2023-05-29T16:18:16;4.56;;;1.61;;
56593;SDS011;42474;51.660;5.824;2023-05-29T16:22:16;4.41;;;1.63;;
56593;SDS011;42474;51.660;5.824;2023-05-29T16:26:16;10.22;;;1.62;;
56593;SDS011;42474;51.660;5.824;2023-05-29T16:30:16;6.36;;;2.07;;
56593;SDS011;42474;51.660;5.824;2023-05-29T16:38:16;6.34;;;1.65;;
56593;SDS011;42474;51.660;5.824;2023-05-29T16:42:16;3.99;;;1.34;;
56593;SDS011;42474;51.660;5.824;2023-05-29T16:50:16;4.46;;;1.26;;
56593;SDS011;42474;51.660;5.824;2023-05-29T16:54:16;5.95;;;1.74;;
56593;SDS011;42474;51.660;5.824;2023-05-29T16:58:16;10.05;;;1.86;;
56593;SDS011;42474;51.660;5.824;2023-05-29T17:06:17;5.62;;;1.6;;
56593;SDS011;42474;51.660;5.824;2023-05-29T17:10:16;5.61;;;1.51;;
56593;SDS011;42474;51.660;5.824;2023-05-29T17:18:16;6.08;;;1.78;;
56593;SDS011;42474;51.660;5.824;2023-05-29T17:22:16;4.97;;;1.72;;
56593;SDS011;42474;51.660;5.824;2023-05-29T17:26:16;6.29;;;1.71;;
56593;SDS011;42474;51.660;5.824;2023-05-29T17:30:16;4.52;;;1.82;;
56593;SDS011;42474;51.660;5.824;2023-05-29T17:34:16;5.01;;;1.56;;
56593;SDS011;42474;51.660;5.824;2023-05-29T17:38:16;5;;;1.4;;
56593;SDS011;42474;51.660;5.824;2023-05-29T17:42:16;5.58;;;1.7;;
56593;SDS011;42474;51.660;5.824;2023-05-29T17:46:16;5.75;;;1.58;;
56593;SDS011;42474;51.660;5.824;2023-05-29T17:50:16;5.14;;;1.43;;
56593;SDS011;42474;51.660;5.824;2023-05-29T17:54:16;8.82;;;1.78;;
56593;SDS011;42474;51.660;5.824;2023-05-29T17:58:16;6.5;;;1.53;;
56593;SDS011;42474;51.660;5.824;2023-05-29T18:02:16;6.33;;;1.66;;
56593;SDS011;42474;51.660;5.824;2023-05-29T18:06:16;6.49;;;1.89;;
56593;SDS011;42474;51.660;5.824;2023-05-29T18:10:16;4.23;;;1.48;;
56593;SDS011;42474;51.660;5.824;2023-05-29T18:14:16;3.34;;;1.41;;
56593;SDS011;42474;51.660;5.824;2023-05-29T18:18:16;4.88;;;1.53;;
56593;SDS011;42474;51.660;5.824;2023-05-29T18:22:16;3.87;;;1.64;;
56593;SDS011;42474;51.660;5.824;2023-05-29T18:26:16;4.68;;;1.42;;
56593;SDS011;42474;51.660;5.824;2023-05-29T18:30:16;6.65;;;1.54;;
56593;SDS011;42474;51.660;5.824;2023-05-29T18:34:16;3.76;;;1.47;;
56593;SDS011;42474;51.660;5.824;2023-05-29T18:38:16;4.75;;;1.41;;
56593;SDS011;42474;51.660;5.824;2023-05-29T18:42:16;5.41;;;1.59;;
56593;SDS011;42474;51.660;5.824;2023-05-29T18:46:16;4.66;;;1.39;;
56593;SDS011;42474;51.660;5.824;2023-05-29T18:50:16;5.21;;;1.36;;
56593;SDS011;42474;51.660;5.824;2023-05-29T18:54:16;5.29;;;1.52;;
56593;SDS011;42474;51.660;5.824;2023-05-29T18:58:16;6.91;;;1.31;;
56593;SDS011;42474;51.660;5.824;2023-05-29T19:02:16;3.26;;;1.19;;
56593;SDS011;42474;51.660;5.824;2023-05-29T19:06:16;4.14;;;1.07;;
56593;SDS011;42474;51.660;5.824;2023-05-29T19:10:16;6.09;;;1.74;;
56593;SDS011;42474;51.660;5.824;2023-05-29T19:14:16;11.99;;;5.57;;
56593;SDS011;42474;51.660;5.824;2023-05-29T19:18:16;14.3;;;6.98;;
56593;SDS011;42474;51.660;5.824;2023-05-29T19:22:16;10.61;;;4.31;;
56593;SDS011;42474;51.660;5.824;2023-05-29T19:26:16;5.04;;;1.99;;
56593;SDS011;42474;51.660;5.824;2023-05-29T19:30:16;4.99;;;1.8;;
56593;SDS011;42474;51.660;5.824;2023-05-29T19:34:16;5.98;;;1.7;;
56593;SDS011;42474;51.660;5.824;2023-05-29T19:38:16;5.25;;;1.59;;
56593;SDS011;42474;51.660;5.824;2023-05-29T19:42:16;4.66;;;1.36;;
56593;SDS011;42474;51.660;5.824;2023-05-29T19:46:16;4.74;;;1.51;;
56593;SDS011;42474;51.660;5.824;2023-05-29T19:50:16;7.45;;;1.64;;
56593;SDS011;42474;51.660;5.824;2023-05-29T19:54:16;4.93;;;1.54;;
56593;SDS011;42474;51.660;5.824;2023-05-29T19:58:16;4.69;;;1.67;;
56593;SDS011;42474;51.660;5.824;2023-05-29T20:02:16;6.38;;;1.58;;
56593;SDS011;42474;51.660;5.824;2023-05-29T20:06:16;4.78;;;1.66;;
56593;SDS011;42474;51.660;5.824;2023-05-29T20:10:16;5.18;;;1.51;;
56593;SDS011;42474;51.660;5.824;2023-05-29T20:14:16;5.77;;;1.51;;
56593;SDS011;42474;51.660;5.824;2023-05-29T20:18:16;8.23;;;1.57;;
56593;SDS011;42474;51.660;5.824;2023-05-29T20:22:16;4.17;;;1.48;;
56593;SDS011;42474;51.660;5.824;2023-05-29T20:26:16;5.17;;;1.57;;
56593;SDS011;42474;51.660;5.824;2023-05-29T20:30:16;6.07;;;1.63;;
56593;SDS011;42474;51.660;5.824;2023-05-29T20:34:16;3.98;;;1.41;;
56593;SDS011;42474;51.660;5.824;2023-05-29T20:38:16;5.41;;;1.38;;
56593;SDS011;42474;51.660;5.824;2023-05-29T20:42:16;6.62;;;1.75;;
56593;SDS011;42474;51.660;5.824;2023-05-29T20:46:16;4.96;;;1.66;;
56593;SDS011;42474;51.660;5.824;2023-05-29T20:50:16;3.57;;;1.37;;
56593;SDS011;42474;51.660;5.824;2023-05-29T20:54:16;6.77;;;1.58;;
56593;SDS011;42474;51.660;5.824;2023-05-29T20:58:16;5.23;;;1.53;;
56593;SDS011;42474;51.660;5.824;2023-05-29T21:02:16;4.05;;;1.66;;
56593;SDS011;42474;51.660;5.824;2023-05-29T21:06:16;6.26;;;1.93;;
56593;SDS011;42474;51.660;5.824;2023-05-29T21:10:16;4.72;;;1.29;;
56593;SDS011;42474;51.660;5.824;2023-05-29T21:14:16;4.07;;;1.23;;
56593;SDS011;42474;51.660;5.824;2023-05-29T21:18:16;4.79;;;1.46;;
56593;SDS011;42474;51.660;5.824;2023-05-29T21:22:16;5.81;;;1.57;;
56593;SDS011;42474;51.660;5.824;2023-05-29T21:26:16;5.76;;;1.58;;
56593;SDS011;42474;51.660;5.824;2023-05-29T21:30:16;6.98;;;1.78;;
56593;SDS011;42474;51.660;5.824;2023-05-29T21:34:16;3.92;;;1.68;;
56593;SDS011;42474;51.660;5.824;2023-05-29T21:38:16;4.8;;;1.66;;
56593;SDS011;42474;51.660;5.824;2023-05-29T21:42:16;8.64;;;1.45;;
56593;SDS011;42474;51.660;5.824;2023-05-29T21:46:16;7.76;;;1.71;;
56593;SDS011;42474;51.660;5.824;2023-05-29T21:50:16;6.02;;;1.51;;
56593;SDS011;42474;51.660;5.824;2023-05-29T21:54:17;3.86;;;1.51;;
56593;SDS011;42474;51.660;5.824;2023-05-29T21:58:16;6.72;;;1.8;;
56593;SDS011;42474;51.660;5.824;2023-05-29T22:02:16;6.41;;;2.07;;
56593;SDS011;42474;51.660;5.824;2023-05-29T22:06:16;9.58;;;1.89;;
56593;SDS011;42474;51.660;5.824;2023-05-29T22:10:16;5.86;;;1.69;;
56593;SDS011;42474;51.660;5.824;2023-05-29T22:14:16;6.77;;;1.64;;
56593;SDS011;42474;51.660;5.824;2023-05-29T22:18:16;9.3;;;2.08;;
56593;SDS011;42474;51.660;5.824;2023-05-29T22:22:16;6.76;;;2.15;;
56593;SDS011;42474;51.660;5.824;2023-05-29T22:26:16;6.28;;;1.71;;
56593;SDS011;42474;51.660;5.824;2023-05-29T22:30:16;7.29;;;1.54;;
56593;SDS011;42474;51.660;5.824;2023-05-29T22:34:16;11.36;;;2.02;;
56593;SDS011;42474;51.660;5.824;2023-05-29T22:38:17;7.65;;;2.11;;
56593;SDS011;42474;51.660;5.824;2023-05-29T22:42:16;7.8;;;1.95;;
56593;SDS011;42474;51.660;5.824;2023-05-29T22:46:16;5.27;;;1.64;;
56593;SDS011;42474;51.660;5.824;2023-05-29T22:50:16;7.62;;;1.61;;
56593;SDS011;42474;51.660;5.824;2023-05-29T22:54:16;5.63;;;1.75;;
56593;SDS011;42474;51.660;5.824;2023-05-29T22:58:16;7.21;;;1.82;;
56593;SDS011;42474;51.660;5.824;2023-05-29T23:02:16;5.57;;;1.8;;
56593;SDS011;42474;51.660;5.824;2023-05-29T23:06:16;8.96;;;1.95;;
56593;SDS011;42474;51.660;5.824;2023-05-29T23:10:16;8.18;;;2;;
56593;SDS011;42474;51.660;5.824;2023-05-29T23:14:16;10.42;;;2.06;;
56593;SDS011;42474;51.660;5.824;2023-05-29T23:18:16;7.92;;;1.81;;
56593;SDS011;42474;51.660;5.824;2023-05-29T23:22:16;7.5;;;2.43;;
56593;SDS011;42474;51.660;5.824;2023-05-29T23:26:16;5.87;;;1.56;;
56593;SDS011;42474;51.660;5.824;2023-05-29T23:30:16;5.95;;;1.76;;
56593;SDS011;42474;51.660;5.824;2023-05-29T23:34:16;6.05;;;2.14;;
56593;SDS011;42474;51.660;5.824;2023-05-29T23:42:17;7.16;;;1.91;;
56593;SDS011;42474;51.660;5.824;2023-05-29T23:46:16;6.62;;;1.76;;
56593;SDS011;42474;51.660;5.824;2023-05-29T23:50:16;6.76;;;1.94;;
56593;SDS011;42474;51.660;5.824;2023-05-29T23:54:16;6.98;;;1.87;;
56593;SDS011;42474;51.660;5.824;2023-05-29T23:58:16;6.05;;;1.72;;
